sensor_id;sensor_type;location;lat;lon;timestamp;pressure;altitude;pressure_sealevel;temperature
11926;BMP180;6022;48.768;18.608;2023-08-07T00:00:46;97359.88;;;15.11
11926;BMP180;6022;48.768;18.608;2023-08-07T00:03:13;97345.50;;;15.11
11926;BMP180;6022;48.768;18.608;2023-08-07T00:05:46;97349.66;;;15.11
11926;BMP180;6022;48.768;18.608;2023-08-07T00:08:16;97346.44;;;15.10
11926;BMP180;6022;48.768;18.608;2023-08-07T00:10:43;97350.44;;;15.12
11926;BMP180;6022;48.768;18.608;2023-08-07T00:13:10;97359.22;;;15.10
11926;BMP180;6022;48.768;18.608;2023-08-07T00:15:38;97363.41;;;15.11
11926;BMP180;6022;48.768;18.608;2023-08-07T00:18:05;97361.78;;;15.10
11926;BMP180;6022;48.768;18.608;2023-08-07T00:20:33;97369.28;;;15.11
11926;BMP180;6022;48.768;18.608;2023-08-07T00:23:02;97366.25;;;15.08
11926;BMP180;6022;48.768;18.608;2023-08-07T00:25:32;97371.63;;;15.05
11926;BMP180;6022;48.768;18.608;2023-08-07T00:28:00;97375.00;;;15.05
11926;BMP180;6022;48.768;18.608;2023-08-07T00:30:30;97372.59;;;15.04
11926;BMP180;6022;48.768;18.608;2023-08-07T00:32:58;97383.59;;;15.04
11926;BMP180;6022;48.768;18.608;2023-08-07T00:35:32;97390.84;;;15.09
11926;BMP180;6022;48.768;18.608;2023-08-07T00:38:01;97379.59;;;15.02
11926;BMP180;6022;48.768;18.608;2023-08-07T00:40:37;97385.06;;;15.07
11926;BMP180;6022;48.768;18.608;2023-08-07T00:43:06;97387.78;;;15.05
11926;BMP180;6022;48.768;18.608;2023-08-07T00:45:43;97378.16;;;14.99
11926;BMP180;6022;48.768;18.608;2023-08-07T00:48:19;97391.34;;;14.95
11926;BMP180;6022;48.768;18.608;2023-08-07T00:50:48;97392.97;;;14.96
11926;BMP180;6022;48.768;18.608;2023-08-07T00:53:16;97393.78;;;14.96
11926;BMP180;6022;48.768;18.608;2023-08-07T00:55:52;97385.81;;;14.99
11926;BMP180;6022;48.768;18.608;2023-08-07T00:58:19;97390.09;;;14.99
11926;BMP180;6022;48.768;18.608;2023-08-07T01:00:47;97386.63;;;15.00
11926;BMP180;6022;48.768;18.608;2023-08-07T01:03:14;97391.06;;;14.98
11926;BMP180;6022;48.768;18.608;2023-08-07T01:05:51;97396.50;;;15.03
11926;BMP180;6022;48.768;18.608;2023-08-07T01:08:19;97398.41;;;15.01
11926;BMP180;6022;48.768;18.608;2023-08-07T01:16:31;97391.34;;;14.95
11926;BMP180;6022;48.768;18.608;2023-08-07T01:19:01;97397.63;;;15.00
11926;BMP180;6022;48.768;18.608;2023-08-07T01:21:32;97399.66;;;14.97
11926;BMP180;6022;48.768;18.608;2023-08-07T01:24:00;97409.88;;;14.97
11926;BMP180;6022;48.768;18.608;2023-08-07T01:26:27;97407.66;;;14.94
11926;BMP180;6022;48.768;18.608;2023-08-07T01:29:36;97419.44;;;14.95
11926;BMP180;6022;48.768;18.608;2023-08-07T01:32:09;97412.91;;;14.92
11926;BMP180;6022;48.768;18.608;2023-08-07T01:34:41;97413.81;;;14.91
11926;BMP180;6022;48.768;18.608;2023-08-07T01:37:10;97410.63;;;14.89
11926;BMP180;6022;48.768;18.608;2023-08-07T01:39:41;97410.75;;;14.88
11926;BMP180;6022;48.768;18.608;2023-08-07T01:42:08;97419.09;;;14.90
11926;BMP180;6022;48.768;18.608;2023-08-07T01:44:37;97412.53;;;14.87
11926;BMP180;6022;48.768;18.608;2023-08-07T01:47:05;97413.31;;;14.88
11926;BMP180;6022;48.768;18.608;2023-08-07T01:49:32;97409.19;;;14.87
11926;BMP180;6022;48.768;18.608;2023-08-07T01:51:59;97417.63;;;14.87
11926;BMP180;6022;48.768;18.608;2023-08-07T01:54:26;97416.84;;;14.87
11926;BMP180;6022;48.768;18.608;2023-08-07T01:56:53;97423.84;;;14.85
11926;BMP180;6022;48.768;18.608;2023-08-07T01:59:21;97426.41;;;14.85
11926;BMP180;6022;48.768;18.608;2023-08-07T02:01:48;97431.66;;;14.83
11926;BMP180;6022;48.768;18.608;2023-08-07T02:04:17;97425.75;;;14.83
11926;BMP180;6022;48.768;18.608;2023-08-07T02:06:44;97427.31;;;14.84
11926;BMP180;6022;48.768;18.608;2023-08-07T02:09:11;97427.31;;;14.84
11926;BMP180;6022;48.768;18.608;2023-08-07T02:11:38;97419.84;;;14.82
11926;BMP180;6022;48.768;18.608;2023-08-07T02:14:05;97423.31;;;14.81
11926;BMP180;6022;48.768;18.608;2023-08-07T02:16:32;97430.84;;;14.83
11926;BMP180;6022;48.768;18.608;2023-08-07T02:19:00;97426.03;;;14.80
11926;BMP180;6022;48.768;18.608;2023-08-07T02:21:27;97431.28;;;14.78
11926;BMP180;6022;48.768;18.608;2023-08-07T02:23:54;97434.66;;;14.79
11926;BMP180;6022;48.768;18.608;2023-08-07T02:26:21;97436.22;;;14.80
11926;BMP180;6022;48.768;18.608;2023-08-07T02:28:48;97428.22;;;14.75
11926;BMP180;6022;48.768;18.608;2023-08-07T02:31:15;97439.75;;;14.79
11926;BMP180;6022;48.768;18.608;2023-08-07T02:33:44;97437.06;;;14.80
11926;BMP180;6022;48.768;18.608;2023-08-07T02:36:14;97441.66;;;14.77
11926;BMP180;6022;48.768;18.608;2023-08-07T02:38:41;97441.34;;;14.80
11926;BMP180;6022;48.768;18.608;2023-08-07T02:41:09;97434.34;;;14.82
11926;BMP180;6022;48.768;18.608;2023-08-07T02:43:36;97431.94;;;14.80
11926;BMP180;6022;48.768;18.608;2023-08-07T02:46:03;97433.81;;;14.78
11926;BMP180;6022;48.768;18.608;2023-08-07T02:48:30;97430.91;;;14.73
11926;BMP180;6022;48.768;18.608;2023-08-07T02:50:57;97433.63;;;14.72
11926;BMP180;6022;48.768;18.608;2023-08-07T02:53:24;97432.03;;;14.71
11926;BMP180;6022;48.768;18.608;2023-08-07T02:55:51;97435.38;;;14.72
11926;BMP180;6022;48.768;18.608;2023-08-07T02:58:19;97431.66;;;14.66
11926;BMP180;6022;48.768;18.608;2023-08-07T03:00:49;97439.97;;;14.68
11926;BMP180;6022;48.768;18.608;2023-08-07T03:03:16;97436.09;;;14.64
11926;BMP180;6022;48.768;18.608;2023-08-07T03:05:52;97437.75;;;14.56
11926;BMP180;6022;48.768;18.608;2023-08-07T03:08:19;97450.38;;;14.57
11926;BMP180;6022;48.768;18.608;2023-08-07T03:10:54;97450.69;;;14.54
11926;BMP180;6022;48.768;18.608;2023-08-07T03:13:26;97450.56;;;14.46
11926;BMP180;6022;48.768;18.608;2023-08-07T03:16:05;97451.88;;;14.50
11926;BMP180;6022;48.768;18.608;2023-08-07T03:18:33;97459.00;;;14.56
11926;BMP180;6022;48.768;18.608;2023-08-07T03:21:00;97452.00;;;14.58
11926;BMP180;6022;48.768;18.608;2023-08-07T03:23:28;97459.66;;;14.58
11926;BMP180;6022;48.768;18.608;2023-08-07T03:26:10;97453.59;;;14.59
11926;BMP180;6022;48.768;18.608;2023-08-07T03:28:41;97454.81;;;14.55
11926;BMP180;6022;48.768;18.608;2023-08-07T03:31:08;97456.72;;;14.53
11926;BMP180;6022;48.768;18.608;2023-08-07T03:33:35;97453.94;;;14.47
11926;BMP180;6022;48.768;18.608;2023-08-07T03:36:02;97451.03;;;14.42
11926;BMP180;6022;48.768;18.608;2023-08-07T03:38:29;97451.59;;;14.36
11926;BMP180;6022;48.768;18.608;2023-08-07T03:40:56;97450.63;;;14.37
11926;BMP180;6022;48.768;18.608;2023-08-07T03:43:23;97447.94;;;14.38
11926;BMP180;6022;48.768;18.608;2023-08-07T03:45:55;97449.03;;;14.36
11926;BMP180;6022;48.768;18.608;2023-08-07T03:48:27;97456.44;;;14.30
11926;BMP180;6022;48.768;18.608;2023-08-07T03:51:05;97456.75;;;14.27
11926;BMP180;6022;48.768;18.608;2023-08-07T03:53:35;97456.22;;;14.23
11926;BMP180;6022;48.768;18.608;2023-08-07T03:56:03;97456.75;;;14.27
11926;BMP180;6022;48.768;18.608;2023-08-07T03:58:30;97459.00;;;14.30
11926;BMP180;6022;48.768;18.608;2023-08-07T04:00:57;97463.16;;;14.31
11926;BMP180;6022;48.768;18.608;2023-08-07T04:03:24;97459.97;;;14.29
11926;BMP180;6022;48.768;18.608;2023-08-07T04:05:53;97458.66;;;14.25
11926;BMP180;6022;48.768;18.608;2023-08-07T04:08:22;97467.22;;;14.24
11926;BMP180;6022;48.768;18.608;2023-08-07T04:11:04;97467.88;;;14.26
11926;BMP180;6022;48.768;18.608;2023-08-07T04:13:32;97470.06;;;14.21
11926;BMP180;6022;48.768;18.608;2023-08-07T04:15:59;97472.31;;;14.24
11926;BMP180;6022;48.768;18.608;2023-08-07T04:18:28;97468.84;;;14.25
11926;BMP180;6022;48.768;18.608;2023-08-07T04:20:56;97479.63;;;14.19
11926;BMP180;6022;48.768;18.608;2023-08-07T04:23:24;97471.53;;;14.23
11926;BMP180;6022;48.768;18.608;2023-08-07T04:25:52;97471.81;;;14.20
11926;BMP180;6022;48.768;18.608;2023-08-07T04:28:20;97468.84;;;14.25
11926;BMP180;6022;48.768;18.608;2023-08-07T04:30:51;97470.44;;;14.26
11926;BMP180;6022;48.768;18.608;2023-08-07T04:33:28;97471.81;;;14.20
11926;BMP180;6022;48.768;18.608;2023-08-07T04:35:55;97468.03;;;14.24
11926;BMP180;6022;48.768;18.608;2023-08-07T04:39:13;97469.91;;;14.22
11926;BMP180;6022;48.768;18.608;2023-08-07T04:41:48;97467.53;;;14.21
11926;BMP180;6022;48.768;18.608;2023-08-07T04:44:26;97473.00;;;14.26
11926;BMP180;6022;48.768;18.608;2023-08-07T04:46:54;97472.31;;;14.24
11926;BMP180;6022;48.768;18.608;2023-08-07T04:49:22;97468.53;;;14.28
11926;BMP180;6022;48.768;18.608;2023-08-07T04:51:49;97466.38;;;14.33
11926;BMP180;6022;48.768;18.608;2023-08-07T04:54:35;97463.84;;;14.33
11926;BMP180;6022;48.768;18.608;2023-08-07T04:57:02;97457.28;;;14.30
11926;BMP180;6022;48.768;18.608;2023-08-07T04:59:29;97478.34;;;14.32
11926;BMP180;6022;48.768;18.608;2023-08-07T05:02:06;97473.66;;;14.28
11926;BMP180;6022;48.768;18.608;2023-08-07T05:04:35;97474.31;;;14.30
11926;BMP180;6022;48.768;18.608;2023-08-07T05:07:07;97487.72;;;14.32
11926;BMP180;6022;48.768;18.608;2023-08-07T05:09:34;97475.34;;;14.36
11926;BMP180;6022;48.768;18.608;2023-08-07T05:12:05;97482.22;;;14.36
11926;BMP180;6022;48.768;18.608;2023-08-07T05:14:38;97482.72;;;14.39
11926;BMP180;6022;48.768;18.608;2023-08-07T05:17:08;97490.38;;;14.39
11926;BMP180;6022;48.768;18.608;2023-08-07T05:19:42;97481.25;;;14.37
11926;BMP180;6022;48.768;18.608;2023-08-07T05:22:10;97483.41;;;14.41
11926;BMP180;6022;48.768;18.608;2023-08-07T05:24:37;97479.22;;;14.40
11926;BMP180;6022;48.768;18.608;2023-08-07T05:27:10;97483.22;;;14.43
11926;BMP180;6022;48.768;18.608;2023-08-07T05:29:44;97487.63;;;14.50
11926;BMP180;6022;48.768;18.608;2023-08-07T05:32:13;97483.47;;;14.49
11926;BMP180;6022;48.768;18.608;2023-08-07T05:34:49;97485.94;;;14.41
11926;BMP180;6022;48.768;18.608;2023-08-07T05:37:17;97494.13;;;14.45
11926;BMP180;6022;48.768;18.608;2023-08-07T05:39:48;97496.50;;;14.46
11926;BMP180;6022;48.768;18.608;2023-08-07T05:42:15;97491.72;;;14.43
11926;BMP180;6022;48.768;18.608;2023-08-07T05:44:53;97498.13;;;14.47
11926;BMP180;6022;48.768;18.608;2023-08-07T05:47:20;97497.47;;;14.45
11926;BMP180;6022;48.768;18.608;2023-08-07T05:49:47;97495.28;;;14.50
11926;BMP180;6022;48.768;18.608;2023-08-07T05:52:20;97501.72;;;14.54
11926;BMP180;6022;48.768;18.608;2023-08-07T05:54:56;97488.38;;;14.60
11926;BMP180;6022;48.768;18.608;2023-08-07T05:57:37;97500.84;;;14.63
11926;BMP180;6022;48.768;18.608;2023-08-07T06:00:05;97502.16;;;14.67
11926;BMP180;6022;48.768;18.608;2023-08-07T06:02:32;97508.88;;;14.68
11926;BMP180;6022;48.768;18.608;2023-08-07T06:05:00;97503.38;;;14.63
11926;BMP180;6022;48.768;18.608;2023-08-07T06:07:27;97513.19;;;14.68
11926;BMP180;6022;48.768;18.608;2023-08-07T06:09:54;97516.25;;;14.71
11926;BMP180;6022;48.768;18.608;2023-08-07T06:12:22;97518.50;;;14.74
11926;BMP180;6022;48.768;18.608;2023-08-07T06:14:49;97523.91;;;14.71
11926;BMP180;6022;48.768;18.608;2023-08-07T06:17:16;97526.03;;;14.75
11926;BMP180;6022;48.768;18.608;2023-08-07T06:19:43;97536.75;;;14.79
11926;BMP180;6022;48.768;18.608;2023-08-07T06:22:10;97539.66;;;14.84
11926;BMP180;6022;48.768;18.608;2023-08-07T06:24:38;97532.44;;;14.79
11926;BMP180;6022;48.768;18.608;2023-08-07T06:27:12;97535.81;;;14.80
11926;BMP180;6022;48.768;18.608;2023-08-07T06:29:40;97527.41;;;14.70
11926;BMP180;6022;48.768;18.608;2023-08-07T06:32:07;97542.59;;;14.72
11926;BMP180;6022;48.768;18.608;2023-08-07T06:34:35;97536.56;;;14.63
11926;BMP180;6022;48.768;18.608;2023-08-07T06:37:07;97537.44;;;14.54
11926;BMP180;6022;48.768;18.608;2023-08-07T06:39:34;97548.16;;;14.58
11926;BMP180;6022;48.768;18.608;2023-08-07T06:42:02;97549.91;;;14.57
11926;BMP180;6022;48.768;18.608;2023-08-07T06:44:30;97548.72;;;14.52
11926;BMP180;6022;48.768;18.608;2023-08-07T06:46:57;97545.94;;;14.45
11926;BMP180;6022;48.768;18.608;2023-08-07T06:49:24;97549.78;;;14.32
11926;BMP180;6022;48.768;18.608;2023-08-07T06:51:54;97550.03;;;14.29
11926;BMP180;6022;48.768;18.608;2023-08-07T06:54:28;97554.44;;;14.36
11926;BMP180;6022;48.768;18.608;2023-08-07T06:57:30;97554.72;;;14.34
11926;BMP180;6022;48.768;18.608;2023-08-07T07:00:17;97552.56;;;14.38
11926;BMP180;6022;48.768;18.608;2023-08-07T07:02:44;97559.72;;;14.52
11926;BMP180;6022;48.768;18.608;2023-08-07T07:05:22;97559.72;;;14.52
11926;BMP180;6022;48.768;18.608;2023-08-07T07:07:53;97571.94;;;14.58
11926;BMP180;6022;48.768;18.608;2023-08-07T07:10:21;97567.63;;;14.59
11926;BMP180;6022;48.768;18.608;2023-08-07T07:12:48;97567.78;;;14.57
11926;BMP180;6022;48.768;18.608;2023-08-07T07:15:15;97580.97;;;14.53
11926;BMP180;6022;48.768;18.608;2023-08-07T07:17:43;97578.31;;;14.45
11926;BMP180;6022;48.768;18.608;2023-08-07T07:20:11;97576.03;;;14.42
11926;BMP180;6022;48.768;18.608;2023-08-07T07:22:41;97583.25;;;14.46
11926;BMP180;6022;48.768;18.608;2023-08-07T07:25:09;97584.88;;;14.47
11926;BMP180;6022;48.768;18.608;2023-08-07T07:27:36;97585.69;;;14.48
11926;BMP180;6022;48.768;18.608;2023-08-07T07:30:04;97581.53;;;14.47
11926;BMP180;6022;48.768;18.608;2023-08-07T07:32:31;97586.13;;;14.43
11926;BMP180;6022;48.768;18.608;2023-08-07T07:34:58;97593.38;;;14.38
11926;BMP180;6022;48.768;18.608;2023-08-07T07:37:26;97598.25;;;14.32
11926;BMP180;6022;48.768;18.608;2023-08-07T07:39:53;97605.38;;;14.29
11926;BMP180;6022;48.768;18.608;2023-08-07T07:42:20;97611.81;;;14.33
11926;BMP180;6022;48.768;18.608;2023-08-07T07:44:47;97606.81;;;14.31
11926;BMP180;6022;48.768;18.608;2023-08-07T07:47:17;97601.72;;;14.31
11926;BMP180;6022;48.768;18.608;2023-08-07T07:49:46;97608.31;;;14.24
11926;BMP180;6022;48.768;18.608;2023-08-07T07:52:17;97618.50;;;14.34
11926;BMP180;6022;48.768;18.608;2023-08-07T07:54:44;97613.13;;;14.36
11926;BMP180;6022;48.768;18.608;2023-08-07T07:57:11;97610.53;;;14.46
11926;BMP180;6022;48.768;18.608;2023-08-07T07:59:38;97615.13;;;14.42
11926;BMP180;6022;48.768;18.608;2023-08-07T08:02:06;97613.53;;;14.41
11926;BMP180;6022;48.768;18.608;2023-08-07T08:04:53;97620.19;;;14.52
11926;BMP180;6022;48.768;18.608;2023-08-07T08:07:21;97619.63;;;14.58
11926;BMP180;6022;48.768;18.608;2023-08-07T08:09:48;97619.38;;;14.51
11926;BMP180;6022;48.768;18.608;2023-08-07T08:12:15;97628.91;;;14.59
11926;BMP180;6022;48.768;18.608;2023-08-07T08:14:42;97630.22;;;14.63
11926;BMP180;6022;48.768;18.608;2023-08-07T08:17:30;97637.09;;;14.62
11926;BMP180;6022;48.768;18.608;2023-08-07T08:19:58;97641.41;;;14.52
11926;BMP180;6022;48.768;18.608;2023-08-07T08:22:25;97645.56;;;14.53
11926;BMP180;6022;48.768;18.608;2023-08-07T08:24:53;97655.38;;;14.48
11926;BMP180;6022;48.768;18.608;2023-08-07T08:27:20;97645.50;;;14.36
11926;BMP180;6022;48.768;18.608;2023-08-07T08:29:48;97649.50;;;14.38
11926;BMP180;6022;48.768;18.608;2023-08-07T08:32:15;97650.06;;;14.33
11926;BMP180;6022;48.768;18.608;2023-08-07T08:34:45;97663.22;;;14.37
11926;BMP180;6022;48.768;18.608;2023-08-07T08:37:12;97665.34;;;14.42
11926;BMP180;6022;48.768;18.608;2023-08-07T08:39:41;97671.53;;;14.39
11926;BMP180;6022;48.768;18.608;2023-08-07T08:42:11;97673.13;;;14.40
11926;BMP180;6022;48.768;18.608;2023-08-07T08:44:50;97666.94;;;14.43
11926;BMP180;6022;48.768;18.608;2023-08-07T08:47:18;97671.00;;;14.45
11926;BMP180;6022;48.768;18.608;2023-08-07T08:49:55;97672.03;;;14.43
11926;BMP180;6022;48.768;18.608;2023-08-07T08:52:26;97675.97;;;14.47
11926;BMP180;6022;48.768;18.608;2023-08-07T08:54:57;97673.94;;;14.41
11926;BMP180;6022;48.768;18.608;2023-08-07T08:57:25;97679.81;;;14.60
11926;BMP180;6022;48.768;18.608;2023-08-07T08:59:53;97670.50;;;14.69
11926;BMP180;6022;48.768;18.608;2023-08-07T09:02:21;97670.63;;;14.67
11926;BMP180;6022;48.768;18.608;2023-08-07T09:04:48;97670.63;;;14.67
11926;BMP180;6022;48.768;18.608;2023-08-07T09:07:16;97670.38;;;14.70
11926;BMP180;6022;48.768;18.608;2023-08-07T09:09:47;97670.91;;;14.73
11926;BMP180;6022;48.768;18.608;2023-08-07T09:12:24;97674.63;;;14.79
11926;BMP180;6022;48.768;18.608;2023-08-07T09:15:11;97680.31;;;14.73
11926;BMP180;6022;48.768;18.608;2023-08-07T09:18:02;97674.53;;;14.62
11926;BMP180;6022;48.768;18.608;2023-08-07T09:20:36;97671.75;;;14.55
11926;BMP180;6022;48.768;18.608;2023-08-07T09:23:05;97681.41;;;14.61
11926;BMP180;6022;48.768;18.608;2023-08-07T09:25:43;97683.81;;;14.63
11926;BMP180;6022;48.768;18.608;2023-08-07T09:28:14;97677.34;;;14.68
11926;BMP180;6022;48.768;18.608;2023-08-07T09:30:42;97683.56;;;14.66
11926;BMP180;6022;48.768;18.608;2023-08-07T09:33:24;97682.19;;;14.71
11926;BMP180;6022;48.768;18.608;2023-08-07T09:35:52;97675.63;;;14.59
11926;BMP180;6022;48.768;18.608;2023-08-07T09:38:22;97679.94;;;14.59
11926;BMP180;6022;48.768;18.608;2023-08-07T09:40:50;97688.41;;;14.50
11926;BMP180;6022;48.768;18.608;2023-08-07T09:43:22;97680.53;;;14.43
11926;BMP180;6022;48.768;18.608;2023-08-07T09:46:01;97682.00;;;14.36
11926;BMP180;6022;48.768;18.608;2023-08-07T09:48:29;97684.00;;;14.42
11926;BMP180;6022;48.768;18.608;2023-08-07T09:51:02;97693.25;;;14.53
11926;BMP180;6022;48.768;18.608;2023-08-07T09:53:30;97698.34;;;14.62
11926;BMP180;6022;48.768;18.608;2023-08-07T09:56:00;97690.56;;;14.64
11926;BMP180;6022;48.768;18.608;2023-08-07T09:58:29;97688.00;;;14.64
11926;BMP180;6022;48.768;18.608;2023-08-07T10:01:04;97699.06;;;14.45
11926;BMP180;6022;48.768;18.608;2023-08-07T10:03:34;97700.66;;;14.46
11926;BMP180;6022;48.768;18.608;2023-08-07T10:06:09;97699.31;;;14.42
11926;BMP180;6022;48.768;18.608;2023-08-07T10:08:38;97705.38;;;14.41
11926;BMP180;6022;48.768;18.608;2023-08-07T10:11:12;97706.72;;;14.45
11926;BMP180;6022;48.768;18.608;2023-08-07T10:14:17;97704.88;;;14.29
11926;BMP180;6022;48.768;18.608;2023-08-07T10:16:52;97703.50;;;14.34
11926;BMP180;6022;48.768;18.608;2023-08-07T10:19:23;97707.78;;;14.34
11926;BMP180;6022;48.768;18.608;2023-08-07T10:21:53;97711.31;;;14.23
11926;BMP180;6022;48.768;18.608;2023-08-07T10:24:23;97706.47;;;14.20
11926;BMP180;6022;48.768;18.608;2023-08-07T10:26:52;97710.22;;;14.26
11926;BMP180;6022;48.768;18.608;2023-08-07T10:29:27;97708.63;;;14.25
11926;BMP180;6022;48.768;18.608;2023-08-07T10:31:58;97714.28;;;14.19
11926;BMP180;6022;48.768;18.608;2023-08-07T10:34:29;97713.59;;;14.26
11926;BMP180;6022;48.768;18.608;2023-08-07T10:36:57;97710.22;;;14.35
11926;BMP180;6022;48.768;18.608;2023-08-07T10:39:25;97706.03;;;14.43
11926;BMP180;6022;48.768;18.608;2023-08-07T10:41:54;97702.03;;;14.32
11926;BMP180;6022;48.768;18.608;2023-08-07T10:44:54;97707.25;;;14.49
11926;BMP180;6022;48.768;18.608;2023-08-07T10:47:34;97704.94;;;14.55
11926;BMP180;6022;48.768;18.608;2023-08-07T10:50:04;97709.53;;;14.42
11926;BMP180;6022;48.768;18.608;2023-08-07T10:52:38;97715.16;;;14.46
11926;BMP180;6022;48.768;18.608;2023-08-07T10:55:19;97709.81;;;14.39
11926;BMP180;6022;48.768;18.608;2023-08-07T10:57:53;97707.78;;;14.43
11926;BMP180;6022;48.768;18.608;2023-08-07T11:00:27;97711.25;;;14.51
11926;BMP180;6022;48.768;18.608;2023-08-07T11:02:59;97718.69;;;14.45
11926;BMP180;6022;48.768;18.608;2023-08-07T11:05:27;97728.47;;;14.49
11926;BMP180;6022;48.768;18.608;2023-08-07T11:07:54;97727.91;;;14.55
11926;BMP180;6022;48.768;18.608;2023-08-07T11:10:22;97732.09;;;14.56
11926;BMP180;6022;48.768;18.608;2023-08-07T11:12:49;97737.03;;;14.58
11926;BMP180;6022;48.768;18.608;2023-08-07T11:15:16;97731.66;;;14.61
11926;BMP180;6022;48.768;18.608;2023-08-07T11:17:44;97737.31;;;14.55
11926;BMP180;6022;48.768;18.608;2023-08-07T11:20:13;97735.72;;;14.44
11926;BMP180;6022;48.768;18.608;2023-08-07T11:22:40;97732.91;;;14.47
11926;BMP180;6022;48.768;18.608;2023-08-07T11:25:11;97735.16;;;14.50
11926;BMP180;6022;48.768;18.608;2023-08-07T11:27:43;97741.34;;;14.57
11926;BMP180;6022;48.768;18.608;2023-08-07T11:30:12;97742.16;;;14.48
11926;BMP180;6022;48.768;18.608;2023-08-07T11:32:39;97741.22;;;14.49
11926;BMP180;6022;48.768;18.608;2023-08-07T11:35:07;97745.09;;;14.63
11926;BMP180;6022;48.768;18.608;2023-08-07T11:37:35;97745.22;;;14.61
11926;BMP180;6022;48.768;18.608;2023-08-07T11:40:02;97751.78;;;14.73
11926;BMP180;6022;48.768;18.608;2023-08-07T11:42:30;97748.56;;;14.71
11926;BMP180;6022;48.768;18.608;2023-08-07T11:44:57;97760.38;;;14.72
11926;BMP180;6022;48.768;18.608;2023-08-07T11:52:22;97755.06;;;14.56
11926;BMP180;6022;48.768;18.608;2023-08-07T11:55:08;97760.16;;;14.56
11926;BMP180;6022;48.768;18.608;2023-08-07T11:57:38;97771.41;;;14.63
11926;BMP180;6022;48.768;18.608;2023-08-07T12:00:08;97770.75;;;14.61
11926;BMP180;6022;48.768;18.608;2023-08-07T12:02:45;97772.50;;;14.51
11926;BMP180;6022;48.768;18.608;2023-08-07T12:05:13;97771.97;;;14.48
11926;BMP180;6022;48.768;18.608;2023-08-07T12:07:56;97780.84;;;14.53
11926;BMP180;6022;48.768;18.608;2023-08-07T12:10:58;97773.19;;;14.53
11926;BMP180;6022;48.768;18.608;2023-08-07T12:13:43;97781.50;;;14.55
11926;BMP180;6022;48.768;18.608;2023-08-07T12:16:17;97786.75;;;14.54
11926;BMP180;6022;48.768;18.608;2023-08-07T12:18:54;97771.56;;;14.52
11926;BMP180;6022;48.768;18.608;2023-08-07T12:21:23;97786.06;;;14.52
11926;BMP180;6022;48.768;18.608;2023-08-07T12:23:58;97786.75;;;14.54
11926;BMP180;6022;48.768;18.608;2023-08-07T12:26:26;97778.16;;;14.55
11926;BMP180;6022;48.768;18.608;2023-08-07T12:28:53;97785.69;;;14.56
11926;BMP180;6022;48.768;18.608;2023-08-07T12:31:21;97785.69;;;14.56
11926;BMP180;6022;48.768;18.608;2023-08-07T12:33:50;97792.81;;;14.53
11926;BMP180;6022;48.768;18.608;2023-08-07T12:36:19;97796.16;;;14.53
11926;BMP180;6022;48.768;18.608;2023-08-07T12:38:47;97796.94;;;14.54
11926;BMP180;6022;48.768;18.608;2023-08-07T12:41:15;97789.72;;;14.49
11926;BMP180;6022;48.768;18.608;2023-08-07T12:43:45;97800.03;;;14.57
11926;BMP180;6022;48.768;18.608;2023-08-07T12:46:13;97802.03;;;14.54
11926;BMP180;6022;48.768;18.608;2023-08-07T12:48:43;97799.09;;;14.58
11926;BMP180;6022;48.768;18.608;2023-08-07T12:51:11;97798.13;;;14.69
11926;BMP180;6022;48.768;18.608;2023-08-07T12:53:38;97791.97;;;14.71
11926;BMP180;6022;48.768;18.608;2023-08-07T12:56:05;97804.44;;;14.74
11926;BMP180;6022;48.768;18.608;2023-08-07T12:58:33;97790.09;;;14.73
11926;BMP180;6022;48.768;18.608;2023-08-07T13:01:01;97794.22;;;14.74
11926;BMP180;6022;48.768;18.608;2023-08-07T13:03:28;97806.06;;;14.75
11926;BMP180;6022;48.768;18.608;2023-08-07T13:05:59;97808.47;;;14.67
11926;BMP180;6022;48.768;18.608;2023-08-07T13:08:29;97806.34;;;14.72
11926;BMP180;6022;48.768;18.608;2023-08-07T13:10:57;97804.19;;;14.68
11926;BMP180;6022;48.768;18.608;2023-08-07T13:13:25;97806.19;;;14.73
11926;BMP180;6022;48.768;18.608;2023-08-07T13:15:52;97809.28;;;14.77
11926;BMP180;6022;48.768;18.608;2023-08-07T13:18:22;97807.13;;;14.82
11926;BMP180;6022;48.768;18.608;2023-08-07T13:20:49;97808.75;;;14.83
11926;BMP180;6022;48.768;18.608;2023-08-07T13:23:16;97817.72;;;14.87
11926;BMP180;6022;48.768;18.608;2023-08-07T13:25:44;97817.81;;;15.04
11926;BMP180;6022;48.768;18.608;2023-08-07T13:28:11;97815.13;;;15.06
11926;BMP180;6022;48.768;18.608;2023-08-07T13:30:38;97816.47;;;15.10
11926;BMP180;6022;48.768;18.608;2023-08-07T13:33:11;97819.00;;;15.10
11926;BMP180;6022;48.768;18.608;2023-08-07T13:35:42;97837.72;;;15.01
11926;BMP180;6022;48.768;18.608;2023-08-07T13:38:12;97841.75;;;15.12
11926;BMP180;6022;48.768;18.608;2023-08-07T13:40:54;97833.72;;;14.89
11926;BMP180;6022;48.768;18.608;2023-08-07T13:43:22;97847.16;;;14.91
11926;BMP180;6022;48.768;18.608;2023-08-07T13:45:49;97848.63;;;14.84
11926;BMP180;6022;48.768;18.608;2023-08-07T13:48:18;97846.38;;;14.81
11926;BMP180;6022;48.768;18.608;2023-08-07T13:50:53;97848.66;;;14.74
11926;BMP180;6022;48.768;18.608;2023-08-07T13:53:21;97852.28;;;14.72
11926;BMP180;6022;48.768;18.608;2023-08-07T13:55:53;97854.44;;;14.67
11926;BMP180;6022;48.768;18.608;2023-08-07T13:58:30;97866.81;;;14.62
11926;BMP180;6022;48.768;18.608;2023-08-07T14:00:57;97857.13;;;14.66
11926;BMP180;6022;48.768;18.608;2023-08-07T14:03:25;97860.38;;;14.68
11926;BMP180;6022;48.768;18.608;2023-08-07T14:05:53;97870.03;;;14.73
11926;BMP180;6022;48.768;18.608;2023-08-07T14:08:20;97870.81;;;14.74
11926;BMP180;6022;48.768;18.608;2023-08-07T14:10:50;97873.38;;;14.74
11926;BMP180;6022;48.768;18.608;2023-08-07T14:13:17;97881.84;;;14.84
11926;BMP180;6022;48.768;18.608;2023-08-07T14:15:51;97888.03;;;14.81
11926;BMP180;6022;48.768;18.608;2023-08-07T14:18:21;97885.47;;;14.81
11926;BMP180;6022;48.768;18.608;2023-08-07T14:20:49;97886.28;;;14.82
11926;BMP180;6022;48.768;18.608;2023-08-07T14:23:40;97902.78;;;14.87
11926;BMP180;6022;48.768;18.608;2023-08-07T14:26:09;97899.19;;;14.90
11926;BMP180;6022;48.768;18.608;2023-08-07T14:28:42;97899.03;;;14.91
11926;BMP180;6022;48.768;18.608;2023-08-07T14:31:10;97895.13;;;14.87
11926;BMP180;6022;48.768;18.608;2023-08-07T14:33:46;97895.00;;;14.89
11926;BMP180;6022;48.768;18.608;2023-08-07T14:36:14;97896.34;;;14.93
11926;BMP180;6022;48.768;18.608;2023-08-07T14:38:41;97900.38;;;14.86